Time;durP1;ratioP1;P1;durP2;ratioP2;P2;SDS_P1;SDS_P2;PMS_P1;PMS_P2;Temp;Humidity;BMP_temperature;BMP_pressure;BME280_temperature;BME280_humidity;BME280_pressure;Samples;Min_cycle;Max_cycle;Signal;HPM_P1;HPM_P2
2021/11/22 00:00:29;;;;;;;11.25;7.70;;;;;;;5.31;nan;100409.28;5008914;28;20121;-82
2021/11/22 00:02:56;;;;;;;9.45;7.35;;;;;;;5.28;nan;100407.72;5009804;28;20129;-82
2021/11/22 00:05:22;;;;;;;9.75;6.82;;;;;;;5.26;nan;100403.56;5010881;28;20038;-83
2021/11/22 00:07:47;;;;;;;10.23;6.38;;;;;;;5.25;nan;100404.53;5010593;28;20088;-82
2021/11/22 00:10:13;;;;;;;10.00;6.97;;;;;;;5.22;nan;100404.75;5009461;28;20029;-82
2021/11/22 00:12:38;;;;;;;10.73;7.00;;;;;;;5.21;nan;100406.53;5010956;28;20472;-83
2021/11/22 00:15:07;;;;;;;10.48;7.18;;;;;;;5.21;nan;100401.31;5010049;28;20099;-81
2021/11/22 00:17:34;;;;;;;9.88;7.53;;;;;;;5.22;nan;100402.13;5010645;28;20518;-81
2021/11/22 00:19:59;;;;;;;10.40;7.38;;;;;;;5.20;nan;100394.41;5009785;28;20060;-82
2021/11/22 00:22:27;;;;;;;10.93;7.97;;;;;;;5.18;nan;100401.56;5009806;28;20415;-81
2021/11/22 00:24:53;;;;;;;12.10;8.13;;;;;;;5.16;nan;100400.00;5023705;28;20108;-81
2021/11/22 00:27:19;;;;;;;11.20;7.97;;;;;;;5.17;nan;100405.09;5011998;28;20116;-82
2021/11/22 00:29:44;;;;;;;12.00;7.90;;;;;;;5.17;nan;100409.53;5010647;28;20476;-82
2021/11/22 00:32:09;;;;;;;11.65;7.63;;;;;;;5.18;nan;100405.97;5006473;28;20038;-83
2021/11/22 00:34:41;;;;;;;12.20;8.50;;;;;;;5.20;nan;100404.88;5009528;28;20462;-83
2021/11/22 00:37:12;;;;;;;11.60;8.10;;;;;;;5.21;nan;100406.53;5014902;28;20036;-82
2021/11/22 00:39:37;;;;;;;12.75;8.25;;;;;;;5.17;nan;100415.59;5010232;28;20030;-82
2021/11/22 00:42:02;;;;;;;13.20;8.63;;;;;;;5.11;nan;100406.44;5008841;28;20427;-81
2021/11/22 00:44:28;;;;;;;11.77;8.27;;;;;;;5.13;nan;100411.56;5007879;28;20480;-83
2021/11/22 00:46:53;;;;;;;12.65;8.85;;;;;;;5.10;nan;100409.16;5012188;28;20037;-82
2021/11/22 00:49:18;;;;;;;13.27;8.70;;;;;;;5.10;nan;100412.63;5011375;28;20447;-81
2021/11/22 00:51:43;;;;;;;12.70;9.32;;;;;;;5.07;nan;100406.78;5023459;28;20033;-81
2021/11/22 00:54:09;;;;;;;13.75;8.80;;;;;;;5.13;nan;100410.75;5020409;28;20065;-83
2021/11/22 00:56:36;;;;;;;14.30;9.60;;;;;;;5.16;nan;100411.31;5010181;28;20037;-83
2021/11/22 00:59:01;;;;;;;9.88;7.30;;;;;;;5.20;nan;100410.13;5010960;28;20038;-82
2021/11/22 01:01:27;;;;;;;12.98;9.10;;;;;;;5.19;nan;100411.06;5011625;28;20041;-82
2021/11/22 01:03:52;;;;;;;14.70;9.88;;;;;;;5.20;nan;100420.63;5010648;28;20060;-82
2021/11/22 01:06:17;;;;;;;13.68;9.52;;;;;;;5.21;nan;100419.66;5011798;28;20383;-82
2021/11/22 01:08:43;;;;;;;14.05;9.00;;;;;;;5.17;nan;100425.25;5015399;28;20038;-83
2021/11/22 01:11:08;;;;;;;12.85;9.45;;;;;;;5.23;nan;100430.84;5016641;28;20042;-81
2021/11/22 01:13:33;;;;;;;15.02;9.73;;;;;;;5.14;nan;100426.31;5009511;28;20062;-81
2021/11/22 01:15:59;;;;;;;15.30;9.07;;;;;;;5.20;nan;100435.53;5010681;28;20072;-82
2021/11/22 01:18:25;;;;;;;16.90;9.95;;;;;;;5.08;nan;100437.31;5017011;28;20053;-82
2021/11/22 01:20:51;;;;;;;12.43;8.52;;;;;;;5.08;nan;100439.91;5011002;28;20041;-81
2021/11/22 01:23:16;;;;;;;13.10;9.30;;;;;;;5.14;nan;100439.44;5009249;28;20034;-81
2021/11/22 01:25:43;;;;;;;16.65;10.65;;;;;;;5.18;nan;100440.88;5010441;28;20488;-81
2021/11/22 01:28:09;;;;;;;13.63;9.55;;;;;;;5.18;nan;100445.28;5009643;28;20088;-82
2021/11/22 01:30:34;;;;;;;12.68;9.18;;;;;;;5.16;nan;100447.19;5011584;28;20548;-82
2021/11/22 01:33:00;;;;;;;16.55;11.00;;;;;;;5.13;nan;100444.81;5013656;28;20048;-81
2021/11/22 01:35:25;;;;;;;19.08;11.00;;;;;;;5.22;nan;100446.69;5015883;28;20441;-82
2021/11/22 01:37:51;;;;;;;19.02;11.45;;;;;;;5.11;nan;100442.28;5013769;28;20406;-81
2021/11/22 01:40:19;;;;;;;17.05;11.35;;;;;;;5.15;nan;100443.75;5014410;28;20030;-82
2021/11/22 01:42:45;;;;;;;16.55;11.30;;;;;;;5.20;nan;100452.06;5014071;28;20033;-81
2021/11/22 01:45:14;;;;;;;15.70;9.93;;;;;;;5.23;nan;100457.06;5009978;28;20116;-80
2021/11/22 01:47:40;;;;;;;18.40;10.63;;;;;;;5.21;nan;100460.75;5013179;28;20082;-81
2021/11/22 01:50:08;;;;;;;24.38;11.85;;;;;;;5.22;nan;100462.41;5013200;28;20032;-81
2021/11/22 01:52:34;;;;;;;20.73;12.68;;;;;;;5.17;nan;100460.16;5031019;28;20034;-79
2021/11/22 01:54:59;;;;;;;20.92;12.45;;;;;;;5.16;nan;100462.91;5016736;28;20454;-81
2021/11/22 01:57:24;;;;;;;21.63;12.18;;;;;;;5.21;nan;100466.84;5015842;28;20069;-80
2021/11/22 01:59:50;;;;;;;20.75;12.25;;;;;;;5.26;nan;100472.56;5018155;28;20053;-80
2021/11/22 02:02:15;;;;;;;19.67;12.30;;;;;;;5.20;nan;100474.84;5018077;28;20030;-80
2021/11/22 02:04:41;;;;;;;21.20;12.23;;;;;;;5.21;nan;100469.47;5017169;28;20030;-82
2021/11/22 02:07:06;;;;;;;18.63;11.52;;;;;;;5.22;nan;100471.16;5015765;28;20034;-81
2021/11/22 02:09:32;;;;;;;18.58;11.88;;;;;;;5.24;nan;100473.63;5014342;28;20034;-81
2021/11/22 02:11:58;;;;;;;19.25;12.18;;;;;;;5.29;nan;100477.59;5014321;28;20053;-81
2021/11/22 02:14:23;;;;;;;18.95;11.02;;;;;;;5.26;nan;100476.97;5012868;28;20597;-81
2021/11/22 02:16:49;;;;;;;18.45;11.05;;;;;;;5.33;nan;100481.63;5014416;28;20029;-81
2021/11/22 02:19:14;;;;;;;16.63;10.30;;;;;;;5.40;nan;100478.53;5013152;28;20037;-80
2021/11/22 02:21:40;;;;;;;16.35;10.90;;;;;;;5.37;nan;100484.84;5013521;28;20038;-80
2021/11/22 02:24:05;;;;;;;17.00;10.27;;;;;;;5.41;nan;100490.66;5013298;28;20147;-81
2021/11/22 02:26:31;;;;;;;14.80;10.07;;;;;;;5.35;nan;100493.78;5011081;28;20034;-81
2021/11/22 02:28:56;;;;;;;16.77;10.73;;;;;;;5.39;nan;100495.22;5011792;28;20045;-82
2021/11/22 02:31:22;;;;;;;17.42;10.05;;;;;;;5.44;nan;100498.31;5013968;28;20038;-80
2021/11/22 02:33:52;;;;;;;16.90;10.70;;;;;;;5.45;nan;100499.97;5011842;28;20040;-82
2021/11/22 02:36:18;;;;;;;17.17;10.35;;;;;;;5.48;nan;100499.72;5015585;28;20040;-79
2021/11/22 02:38:44;;;;;;;17.88;11.63;;;;;;;5.43;nan;100499.25;5013839;28;20037;-81
2021/11/22 02:41:10;;;;;;;18.45;10.60;;;;;;;5.51;nan;100500.34;5012085;28;20084;-81
2021/11/22 02:43:40;;;;;;;14.85;10.25;;;;;;;5.49;nan;100496.16;5010975;28;20030;-80
2021/11/22 02:46:06;;;;;;;15.98;11.25;;;;;;;5.42;nan;100493.19;5011806;28;20046;-80
2021/11/22 02:48:32;;;;;;;14.57;9.55;;;;;;;5.46;nan;100499.88;5012687;28;20041;-81
2021/11/22 02:51:01;;;;;;;16.88;11.10;;;;;;;5.43;nan;100505.31;5017202;28;20068;-82
2021/11/22 02:53:33;;;;;;;;;;;;;;;5.44;nan;100504.41;5027222;28;20052;-82
2021/11/22 02:56:06;;;;;;;16.38;10.43;;;;;;;5.50;nan;100500.44;5027784;28;19943;-83
2021/11/22 02:58:55;;;;;;;15.77;9.83;;;;;;;5.45;nan;100499.97;5019536;28;20459;-82
2021/11/22 03:01:26;;;;;;;18.70;10.85;;;;;;;5.47;nan;100498.06;5023796;28;20507;-82
2021/11/22 03:03:58;;;;;;;15.60;10.25;;;;;;;5.45;nan;100497.34;4980946;28;20073;-83
2021/11/22 03:07:09;;;;;;;16.42;9.82;;;;;;;5.40;nan;100502.13;5017195;28;20053;-82
2021/11/22 03:10:18;;;;;;;16.05;9.73;;;;;;;5.40;nan;100494.25;5008799;28;20060;-83
2021/11/22 03:12:45;;;;;;;15.75;10.07;;;;;;;5.44;nan;100503.56;5025414;28;20045;-83
2021/11/22 03:15:14;;;;;;;19.73;10.32;;;;;;;5.52;nan;100506.41;5026220;28;20041;-82
2021/11/22 03:17:40;;;;;;;15.82;10.30;;;;;;;5.57;nan;100516.53;5029616;28;20041;-83
2021/11/22 03:20:08;;;;;;;16.98;10.02;;;;;;;5.46;nan;100510.34;5029322;28;20029;-83
2021/11/22 03:22:34;;;;;;;16.42;10.23;;;;;;;5.50;nan;100511.75;5027759;28;20036;-83
2021/11/22 03:24:59;;;;;;;16.08;10.27;;;;;;;5.56;nan;100513.09;5024692;28;20551;-83
2021/11/22 03:27:25;;;;;;;16.85;10.27;;;;;;;5.53;nan;100514.16;5028780;28;20074;-82
2021/11/22 03:29:50;;;;;;;19.05;9.85;;;;;;;5.49;nan;100506.66;5027716;28;20097;-83
2021/11/22 03:32:16;;;;;;;16.38;10.00;;;;;;;5.54;nan;100515.81;5025559;28;20037;-82
2021/11/22 03:34:41;;;;;;;18.00;10.85;;;;;;;5.54;nan;100523.69;5026024;28;20033;-83
2021/11/22 03:37:07;;;;;;;17.58;9.88;;;;;;;5.52;nan;100519.53;5037590;28;20093;-83
2021/11/22 03:39:35;;;;;;;20.48;11.85;;;;;;;5.58;nan;100526.06;5027442;28;20030;-83
2021/11/22 03:42:04;;;;;;;16.38;10.48;;;;;;;5.55;nan;100529.78;5024287;28;20038;-83
2021/11/22 03:44:32;;;;;;;19.00;11.30;;;;;;;5.51;nan;100533.59;5022525;28;20042;-82
2021/11/22 03:46:58;;;;;;;16.15;10.23;;;;;;;5.48;nan;100528.56;5024899;28;20562;-83
2021/11/22 03:49:24;;;;;;;20.30;11.05;;;;;;;5.51;nan;100534.44;5027414;28;20042;-82
2021/11/22 03:51:49;;;;;;;14.10;8.90;;;;;;;5.58;nan;100536.56;5021898;28;20081;-84
2021/11/22 03:54:16;;;;;;;16.60;9.55;;;;;;;5.60;nan;100537.28;5020370;28;20034;-83
2021/11/22 03:56:41;;;;;;;17.90;10.60;;;;;;;5.52;nan;100528.22;5027686;28;20037;-82
2021/11/22 03:59:09;;;;;;;18.45;10.68;;;;;;;5.54;nan;100539.44;5028523;28;21449;-83
2021/11/22 04:01:35;;;;;;;20.83;11.02;;;;;;;5.58;nan;100547.91;5029297;28;20558;-83
2021/11/22 04:04:01;;;;;;;16.10;10.15;;;;;;;5.54;nan;100555.16;5028690;28;20049;-82
2021/11/22 04:06:28;;;;;;;18.33;10.30;;;;;;;5.59;nan;100554.00;5025245;28;20053;-83
2021/11/22 04:08:54;;;;;;;20.08;10.48;;;;;;;5.60;nan;100550.41;5027000;28;20042;-84
2021/11/22 04:11:20;;;;;;;16.65;10.15;;;;;;;5.57;nan;100558.50;5028184;28;20439;-84
2021/11/22 04:13:46;;;;;;;17.25;10.02;;;;;;;5.58;nan;100566.28;5027089;28;20030;-83
2021/11/22 04:16:12;;;;;;;18.15;10.98;;;;;;;5.54;nan;100568.28;5024491;28;20041;-83
2021/11/22 04:18:39;;;;;;;19.38;11.25;;;;;;;5.53;nan;100573.66;5030736;28;20038;-84
2021/11/22 04:21:04;;;;;;;17.90;10.82;;;;;;;5.50;nan;100576.50;5027414;28;20061;-83
2021/11/22 04:23:31;;;;;;;23.90;12.43;;;;;;;5.49;nan;100590.59;5027909;28;20029;-83
2021/11/22 04:25:56;;;;;;;18.70;10.57;;;;;;;5.52;nan;100592.97;5025535;28;20089;-82
2021/11/22 04:28:22;;;;;;;20.58;11.20;;;;;;;5.51;nan;100596.56;5027399;28;20049;-82
2021/11/22 04:30:47;;;;;;;22.05;10.95;;;;;;;5.57;nan;100601.31;5027424;28;20040;-83
2021/11/22 04:33:13;;;;;;;21.95;10.82;;;;;;;5.58;nan;100603.00;5025196;28;20038;-83
2021/11/22 04:35:39;;;;;;;19.75;10.73;;;;;;;5.59;nan;100606.44;5024930;28;20046;-82
2021/11/22 04:38:04;;;;;;;26.08;12.13;;;;;;;5.56;nan;100604.06;5027349;28;20046;-82
2021/11/22 04:40:30;;;;;;;22.73;11.60;;;;;;;5.56;nan;100610.16;5037991;28;20308;-82
2021/11/22 04:42:56;;;;;;;21.63;11.32;;;;;;;5.59;nan;100612.53;5024997;28;20451;-82
2021/11/22 04:45:28;;;;;;;20.27;10.82;;;;;;;5.64;nan;100613.00;5025825;28;20040;-82
2021/11/22 04:47:55;;;;;;;25.15;11.32;;;;;;;5.67;nan;100614.56;5027824;28;20037;-83
2021/11/22 04:50:20;;;;;;;20.92;10.90;;;;;;;5.66;nan;100603.22;5027423;28;20033;-82
2021/11/22 04:52:48;;;;;;;16.88;10.38;;;;;;;5.61;nan;100612.41;5038355;28;20177;-82
2021/11/22 04:55:18;;;;;;;21.17;12.20;;;;;;;5.61;nan;100615.03;5025740;28;20041;-83
2021/11/22 04:57:43;;;;;;;22.98;11.38;;;;;;;5.60;nan;100613.34;5027562;28;20030;-83
2021/11/22 05:00:11;;;;;;;21.45;11.50;;;;;;;5.66;nan;100620.75;5025687;28;20033;-82
2021/11/22 05:02:39;;;;;;;19.85;11.35;;;;;;;5.62;nan;100628.03;5028180;28;20034;-83
2021/11/22 05:05:06;;;;;;;19.85;10.90;;;;;;;5.49;nan;100624.69;5026182;28;20042;-84
2021/11/22 05:07:31;;;;;;;23.77;12.32;;;;;;;5.58;nan;100634.47;5028174;28;20030;-84
2021/11/22 05:09:57;;;;;;;19.63;10.43;;;;;;;5.59;nan;100632.69;5030479;28;20042;-84
2021/11/22 05:12:22;;;;;;;20.10;11.80;;;;;;;5.50;nan;100634.22;5030358;28;20052;-84
2021/11/22 05:14:48;;;;;;;18.38;10.52;;;;;;;5.51;nan;100643.75;5029405;28;20029;-83
2021/11/22 05:17:13;;;;;;;20.67;10.60;;;;;;;5.51;nan;100643.75;5037470;28;20041;-83
2021/11/22 05:19:38;;;;;;;20.63;10.88;;;;;;;5.46;nan;100641.50;5035475;28;20064;-83
2021/11/22 05:22:04;;;;;;;23.98;12.90;;;;;;;5.55;nan;100647.81;5030701;28;20045;-83
2021/11/22 05:24:30;;;;;;;20.15;11.13;;;;;;;5.53;nan;100647.09;5027667;28;20045;-83
2021/11/22 05:26:57;;;;;;;20.45;10.68;;;;;;;5.59;nan;100656.28;5030361;28;20173;-83
2021/11/22 05:29:23;;;;;;;17.02;10.23;;;;;;;5.64;nan;100652.34;5030690;28;20106;-84
2021/11/22 05:31:49;;;;;;;21.10;11.60;;;;;;;5.66;nan;100660.13;5030299;28;20132;-84
2021/11/22 05:34:18;;;;;;;19.98;10.93;;;;;;;5.67;nan;100665.25;5028116;28;20037;-84
2021/11/22 05:36:45;;;;;;;21.67;10.48;;;;;;;5.71;nan;100671.09;5041694;28;20044;-84
2021/11/22 05:39:11;;;;;;;16.60;9.65;;;;;;;5.66;nan;100671.44;5031935;28;20049;-83
2021/11/22 05:41:37;;;;;;;18.60;10.10;;;;;;;5.64;nan;100668.09;5028296;28;20101;-84
2021/11/22 05:44:02;;;;;;;16.80;9.63;;;;;;;5.71;nan;100669.28;5030475;28;20041;-84
2021/11/22 05:46:28;;;;;;;17.08;9.13;;;;;;;5.80;nan;100673.00;5029895;28;20040;-82
2021/11/22 05:48:53;;;;;;;15.23;9.30;;;;;;;5.74;nan;100673.47;5027646;28;20052;-83
2021/11/22 05:51:20;;;;;;;15.73;8.65;;;;;;;5.79;nan;100681.00;5035074;28;20042;-83
2021/11/22 05:53:48;;;;;;;13.82;8.20;;;;;;;5.79;nan;100689.69;5036170;28;20042;-83
2021/11/22 05:56:15;;;;;;;16.05;9.40;;;;;;;5.79;nan;100683.63;5029298;28;20041;-83
2021/11/22 05:58:41;;;;;;;15.13;8.98;;;;;;;5.77;nan;100696.88;5027051;28;20129;-83
2021/11/22 06:01:07;;;;;;;16.30;8.57;;;;;;;5.74;nan;100697.94;5026361;28;20034;-83
2021/11/22 06:03:33;;;;;;;14.73;7.90;;;;;;;5.81;nan;100693.03;5028341;28;20052;-83
2021/11/22 06:05:58;;;;;;;18.92;8.57;;;;;;;5.83;nan;100703.44;5027816;28;20399;-83
2021/11/22 06:08:24;;;;;;;19.95;9.82;;;;;;;5.79;nan;100704.63;5025556;28;20042;-83
2021/11/22 06:10:50;;;;;;;12.38;8.13;;;;;;;5.75;nan;100706.66;5026989;28;20057;-83
2021/11/22 06:13:16;;;;;;;14.60;8.65;;;;;;;5.75;nan;100711.91;5028335;28;20041;-83
2021/11/22 06:15:43;;;;;;;11.85;6.93;;;;;;;5.69;nan;100714.97;5025051;28;20072;-82
2021/11/22 06:18:09;;;;;;;17.95;8.68;;;;;;;5.69;nan;100726.28;5030360;28;20045;-82
2021/11/22 06:20:35;;;;;;;14.57;7.72;;;;;;;5.69;nan;100725.47;5028056;28;20384;-82
2021/11/22 06:23:01;;;;;;;17.52;9.57;;;;;;;5.70;nan;100719.28;5029233;28;20049;-83
2021/11/22 06:25:26;;;;;;;13.32;8.02;;;;;;;5.71;nan;100728.81;5025169;28;20128;-83
2021/11/22 06:27:52;;;;;;;16.83;8.43;;;;;;;5.69;nan;100728.91;5023819;28;20068;-83
2021/11/22 06:30:19;;;;;;;15.93;7.68;;;;;;;5.67;nan;100732.59;5024806;28;20037;-83
2021/11/22 06:32:45;;;;;;;17.17;8.70;;;;;;;5.70;nan;100748.16;5027879;28;20117;-82
2021/11/22 06:35:11;;;;;;;12.60;7.75;;;;;;;5.61;nan;100752.28;5027130;28;20079;-83
2021/11/22 06:37:36;;;;;;;15.45;7.05;;;;;;;5.69;nan;100756.94;5024345;28;20061;-83
2021/11/22 06:40:05;;;;;;;15.45;7.90;;;;;;;5.69;nan;100762.19;5026232;28;20048;-84
2021/11/22 06:42:31;;;;;;;14.38;7.10;;;;;;;5.61;nan;100768.03;5041134;28;20034;-83
2021/11/22 06:44:56;;;;;;;10.77;7.00;;;;;;;5.60;nan;100770.75;5025077;28;20038;-84
2021/11/22 06:47:24;;;;;;;13.00;7.07;;;;;;;5.62;nan;100776.72;5027682;28;20132;-83
2021/11/22 06:49:50;;;;;;;14.40;7.72;;;;;;;5.66;nan;100772.94;5038035;28;20045;-84
2021/11/22 06:52:17;;;;;;;12.57;7.22;;;;;;;5.63;nan;100779.25;5027141;28;20034;-83
2021/11/22 06:54:43;;;;;;;12.10;7.28;;;;;;;5.59;nan;100793.53;5027876;28;20034;-83
2021/11/22 06:57:08;;;;;;;14.95;7.55;;;;;;;5.67;nan;100791.19;5028370;28;20048;-82
2021/11/22 06:59:34;;;;;;;15.80;7.40;;;;;;;5.73;nan;100801.22;5022775;28;20129;-83
2021/11/22 07:02:00;;;;;;;14.93;7.18;;;;;;;5.74;nan;100800.28;5013986;28;20067;-82
2021/11/22 07:04:26;;;;;;;11.95;7.50;;;;;;;5.79;nan;100807.78;5006208;28;20026;-82
2021/11/22 07:06:52;;;;;;;15.90;8.15;;;;;;;5.80;nan;100809.47;5002897;28;20092;-82
2021/11/22 07:09:18;;;;;;;14.07;7.55;;;;;;;5.73;nan;100816.13;5004979;28;20042;-82
2021/11/22 07:11:45;;;;;;;12.52;6.90;;;;;;;5.70;nan;100821.59;5005689;28;20133;-82
2021/11/22 07:14:11;;;;;;;14.20;7.50;;;;;;;5.68;nan;100826.94;5011252;28;20344;-83
2021/11/22 07:16:38;;;;;;;10.57;6.80;;;;;;;5.70;nan;100830.31;5012262;28;20030;-82
2021/11/22 07:19:03;;;;;;;15.25;6.68;;;;;;;5.73;nan;100831.88;5009544;28;20033;-82
2021/11/22 07:21:29;;;;;;;10.00;5.93;;;;;;;5.68;nan;100840.06;5011992;28;20034;-82
2021/11/22 07:23:54;;;;;;;12.60;7.32;;;;;;;5.73;nan;100843.19;5015870;28;20029;-82
2021/11/22 07:26:20;;;;;;;11.70;6.88;;;;;;;5.71;nan;100842.47;5018067;28;20073;-83
2021/11/22 07:28:45;;;;;;;14.82;7.60;;;;;;;5.84;nan;100852.06;5017808;28;20132;-83
2021/11/22 07:31:11;;;;;;;31.65;9.20;;;;;;;5.84;nan;100847.66;5016585;28;20052;-82
2021/11/22 07:33:36;;;;;;;12.30;7.57;;;;;;;5.92;nan;100853.16;5017415;28;20068;-83
2021/11/22 07:36:02;;;;;;;12.80;7.13;;;;;;;5.90;nan;100862.94;5005616;28;20450;-82
2021/11/22 07:38:29;;;;;;;10.05;6.80;;;;;;;5.93;nan;100859.25;5013230;28;20100;-82
2021/11/22 07:40:55;;;;;;;13.68;6.95;;;;;;;5.92;nan;100868.09;5012737;28;20041;-83
2021/11/22 07:43:20;;;;;;;8.57;5.85;;;;;;;5.97;nan;100873.84;5011406;28;20145;-84
2021/11/22 07:45:46;;;;;;;12.93;6.15;;;;;;;5.94;nan;100877.56;5007194;28;20088;-84
2021/11/22 07:48:14;;;;;;;10.20;5.78;;;;;;;5.90;nan;100885.72;5009555;28;20034;-83
2021/11/22 07:50:39;;;;;;;11.20;6.97;;;;;;;5.89;nan;100882.28;5013749;28;20040;-83
2021/11/22 07:53:04;;;;;;;18.50;7.53;;;;;;;6.01;nan;100885.00;5009987;28;20025;-84
2021/11/22 07:55:30;;;;;;;9.35;6.38;;;;;;;6.00;nan;100886.75;5009419;28;20125;-83
2021/11/22 07:57:57;;;;;;;14.18;6.70;;;;;;;6.03;nan;100888.31;5010537;28;20072;-83
2021/11/22 08:00:25;;;;;;;12.02;5.97;;;;;;;6.05;nan;100889.03;5009823;28;20511;-82
2021/11/22 08:02:51;;;;;;;10.98;5.70;;;;;;;6.15;nan;100896.13;5024637;28;20093;-84
2021/11/22 08:05:17;;;;;;;11.80;6.25;;;;;;;6.12;nan;100898.13;5011243;28;20534;-83
2021/11/22 08:07:42;;;;;;;9.77;6.25;;;;;;;6.14;nan;100906.75;5009353;28;20523;-83
2021/11/22 08:10:33;;;;;;;12.80;5.78;;;;;;;6.17;nan;100914.38;5007765;28;20045;-83
2021/11/22 08:13:02;;;;;;;11.07;5.53;;;;;;;6.17;nan;100919.63;5008009;28;20100;-83
2021/11/22 08:15:29;;;;;;;9.68;5.43;;;;;;;6.20;nan;100918.56;5009329;28;20038;-83
2021/11/22 08:17:58;;;;;;;9.07;5.47;;;;;;;6.29;nan;100928.38;5008977;28;20040;-83
2021/11/22 08:20:23;;;;;;;12.07;5.32;;;;;;;6.26;nan;100932.09;5008702;28;20041;-83
2021/11/22 08:22:50;;;;;;;10.65;5.40;;;;;;;6.24;nan;100930.53;5004328;28;20046;-83
2021/11/22 08:25:18;;;;;;;9.05;5.00;;;;;;;6.24;nan;100928.72;5007987;28;20049;-85
2021/11/22 08:27:44;;;;;;;11.23;5.18;;;;;;;6.18;nan;100931.81;5008328;28;20036;-84
2021/11/22 08:30:13;;;;;;;8.85;4.63;;;;;;;6.13;nan;100945.28;5009049;28;20153;-84
2021/11/22 08:32:40;;;;;;;9.27;4.53;;;;;;;6.09;nan;100948.25;5009175;28;20129;-86
2021/11/22 08:35:06;;;;;;;12.63;4.90;;;;;;;6.05;nan;100944.16;5009067;28;20033;-85
2021/11/22 08:37:32;;;;;;;10.70;4.88;;;;;;;5.97;nan;100957.03;5009463;28;20026;-84
2021/11/22 08:39:58;;;;;;;13.27;5.93;;;;;;;5.98;nan;100959.53;5009120;28;20549;-83
2021/11/22 08:42:23;;;;;;;9.05;4.63;;;;;;;5.97;nan;100954.41;5010543;28;20041;-83
2021/11/22 08:44:50;;;;;;;10.55;4.80;;;;;;;5.96;nan;100956.19;5009121;28;20076;-84
2021/11/22 08:47:15;;;;;;;10.38;5.28;;;;;;;5.91;nan;100958.25;5004575;28;20125;-83
2021/11/22 08:49:42;;;;;;;10.27;4.90;;;;;;;5.94;nan;100960.72;5012533;28;20452;-84
2021/11/22 08:52:09;;;;;;;10.07;4.60;;;;;;;5.93;nan;100959.00;5016238;28;20518;-83
2021/11/22 08:54:35;;;;;;;10.38;5.00;;;;;;;5.95;nan;100967.63;5010346;28;20199;-83
2021/11/22 08:57:00;;;;;;;8.18;4.32;;;;;;;5.90;nan;100978.44;5010733;28;20093;-81
2021/11/22 08:59:25;;;;;;;10.80;4.93;;;;;;;5.82;nan;100978.16;5011206;28;20384;-84
2021/11/22 09:01:51;;;;;;;8.52;4.63;;;;;;;5.84;nan;100986.75;5009469;28;20037;-82
2021/11/22 09:04:16;;;;;;;8.48;4.32;;;;;;;5.77;nan;100987.28;5008139;28;20053;-83
2021/11/22 09:06:42;;;;;;;14.63;5.40;;;;;;;5.78;nan;100992.44;5009411;28;20058;-83
2021/11/22 09:09:09;;;;;;;6.78;4.35;;;;;;;5.64;nan;101003.91;5008851;28;20041;-83
2021/11/22 09:11:37;;;;;;;8.63;4.60;;;;;;;5.64;nan;101005.69;5009024;28;20029;-82
2021/11/22 09:14:02;;;;;;;11.38;4.97;;;;;;;5.66;nan;101009.03;5009828;28;20061;-83
2021/11/22 09:16:28;;;;;;;10.82;4.40;;;;;;;5.68;nan;101000.13;5010497;28;20112;-83
2021/11/22 09:18:58;;;;;;;11.65;4.40;;;;;;;5.77;nan;101017.00;5008317;28;20100;-83
2021/11/22 09:21:24;;;;;;;9.15;4.53;;;;;;;5.81;nan;101018.44;5008753;28;20042;-82
2021/11/22 09:23:51;;;;;;;9.65;4.55;;;;;;;5.79;nan;101025.59;5010924;28;20112;-82
2021/11/22 09:26:16;;;;;;;9.75;3.90;;;;;;;5.88;nan;101029.34;5008873;28;20042;-82
2021/11/22 09:28:43;;;;;;;9.60;4.10;;;;;;;6.03;nan;101038.81;5010228;28;20045;-82
2021/11/22 09:31:09;;;;;;;9.27;4.10;;;;;;;6.01;nan;101043.31;5015774;28;20279;-83
2021/11/22 09:33:34;;;;;;;10.40;3.92;;;;;;;6.06;nan;101048.25;5011511;28;20518;-81
2021/11/22 09:36:00;;;;;;;11.05;3.88;;;;;;;6.10;nan;101047.91;5012371;28;20042;-82
2021/11/22 09:38:25;;;;;;;8.05;4.10;;;;;;;5.99;nan;101045.22;5007301;28;20463;-82
2021/11/22 09:40:50;;;;;;;10.23;4.10;;;;;;;6.13;nan;101052.13;5019401;28;20034;-82
2021/11/22 09:43:16;;;;;;;7.68;3.90;;;;;;;6.28;nan;101053.63;5010346;28;20514;-81
2021/11/22 09:45:42;;;;;;;7.15;3.90;;;;;;;6.30;nan;101043.00;5010749;28;20034;-82
2021/11/22 09:48:08;;;;;;;9.95;4.03;;;;;;;6.41;nan;101052.72;5009803;28;20038;-82
2021/11/22 09:50:34;;;;;;;6.68;3.40;;;;;;;6.26;nan;101052.88;5011617;28;20092;-82
2021/11/22 09:53:00;;;;;;;8.80;4.00;;;;;;;6.41;nan;101050.94;5012308;28;20042;-82
2021/11/22 09:55:29;;;;;;;6.00;3.40;;;;;;;6.37;nan;101062.63;5012640;28;20049;-82
2021/11/22 09:57:57;;;;;;;8.07;3.30;;;;;;;6.45;nan;101059.44;5008630;28;20030;-83
2021/11/22 10:00:22;;;;;;;5.18;3.30;;;;;;;6.44;nan;101063.88;5004120;28;20132;-83
2021/11/22 10:02:52;;;;;;;6.80;3.53;;;;;;;6.50;nan;101060.78;5012616;28;20113;-82
2021/11/22 10:05:19;;;;;;;5.88;3.40;;;;;;;6.58;nan;101068.94;5012021;28;20121;-81
2021/11/22 10:07:44;;;;;;;7.93;3.42;;;;;;;6.68;nan;101063.84;5013220;28;20117;-82
2021/11/22 10:10:13;;;;;;;5.63;3.10;;;;;;;6.78;nan;101077.16;5009669;28;20129;-82
2021/11/22 10:12:41;;;;;;;6.43;3.30;;;;;;;6.87;nan;101076.47;5010118;28;20025;-82
2021/11/22 10:15:06;;;;;;;7.53;3.22;;;;;;;6.85;nan;101080.16;5013312;28;20025;-83
2021/11/22 10:17:39;;;;;;;25.20;4.40;;;;;;;6.93;nan;101081.25;5017287;28;20061;-83
2021/11/22 10:20:07;;;;;;;7.78;3.00;;;;;;;7.02;nan;101079.72;5010430;28;20061;-81
2021/11/22 10:22:47;;;;;;;6.78;3.05;;;;;;;7.15;nan;101077.88;5012068;28;20578;-83
2021/11/22 10:25:30;;;;;;;11.23;3.40;;;;;;;7.15;nan;101080.50;5013678;28;20418;-83
2021/11/22 10:28:20;;;;;;;5.07;2.60;;;;;;;7.14;nan;101075.34;5014187;28;20034;-83
2021/11/22 10:30:54;;;;;;;5.60;2.80;;;;;;;7.22;nan;101078.22;4994432;28;20069;-82
2021/11/22 10:33:23;;;;;;;4.82;2.55;;;;;;;7.29;nan;101084.69;5013138;28;20044;-83
2021/11/22 10:35:53;;;;;;;6.05;2.50;;;;;;;7.39;nan;101072.53;5016024;28;20091;-82
2021/11/22 10:38:22;;;;;;;3.95;2.50;;;;;;;7.51;nan;101076.00;5014602;28;20057;-83
2021/11/22 10:40:54;;;;;;;7.45;2.55;;;;;;;7.57;nan;101075.50;5009802;28;20044;-83
2021/11/22 10:43:20;;;;;;;5.45;2.97;;;;;;;7.51;nan;101073.38;5013041;28;20391;-84
2021/11/22 10:45:51;;;;;;;4.07;2.67;;;;;;;7.74;nan;101082.09;5015111;28;20041;-84
2021/11/22 10:48:26;;;;;;;5.65;2.80;;;;;;;7.75;nan;101081.16;5012392;28;20049;-83
2021/11/22 10:51:12;;;;;;;5.55;2.22;;;;;;;7.74;nan;101082.09;5013284;28;20368;-83
2021/11/22 10:53:57;;;;;;;5.60;2.67;;;;;;;7.79;nan;101085.19;5012843;28;20033;-82
2021/11/22 10:56:27;;;;;;;5.55;2.60;;;;;;;7.82;nan;101084.16;5013960;28;20041;-84
2021/11/22 10:59:20;;;;;;;4.90;2.50;;;;;;;7.82;nan;101085.00;5019802;28;20089;-84
2021/11/22 11:01:48;;;;;;;5.60;2.20;;;;;;;7.82;nan;101085.00;5013869;28;20104;-83
2021/11/22 11:04:27;;;;;;;5.90;2.40;;;;;;;7.58;nan;101082.47;5017033;28;20034;-82
2021/11/22 11:06:57;;;;;;;6.18;2.63;;;;;;;7.49;nan;101087.59;5013732;28;20285;-82
2021/11/22 11:09:27;;;;;;;4.15;2.47;;;;;;;7.44;nan;101077.44;5009197;28;20034;-83
2021/11/22 11:12:15;;;;;;;6.75;2.47;;;;;;;7.60;nan;101084.97;5008433;28;20362;-83
2021/11/22 11:14:44;;;;;;;3.50;2.20;;;;;;;7.64;nan;101096.94;4999193;28;20037;-83
2021/11/22 11:17:20;;;;;;;3.22;1.95;;;;;;;7.83;nan;101099.81;5011075;28;20493;-82
2021/11/22 11:19:50;;;;;;;7.95;2.40;;;;;;;7.75;nan;101094.31;5012764;28;20042;-83
2021/11/22 11:22:16;;;;;;;4.50;2.17;;;;;;;7.76;nan;101105.69;5010249;28;20038;-82
2021/11/22 11:24:42;;;;;;;3.17;2.20;;;;;;;7.60;nan;101106.03;5010881;28;20034;-83
2021/11/22 11:27:08;;;;;;;3.53;2.03;;;;;;;7.72;nan;101109.50;5010423;28;20030;-81
2021/11/22 11:29:34;;;;;;;4.25;2.45;;;;;;;7.89;nan;101111.69;5014396;28;20046;-83
2021/11/22 11:31:59;;;;;;;3.63;1.95;;;;;;;;;;5011265;28;20292;-83
2021/11/22 11:34:30;;;;;;;4.20;2.10;;;;;;;8.14;nan;101110.56;5009107;28;20049;-82
2021/11/22 11:37:44;;;;;;;4.05;2.53;;;;;;;8.45;nan;101102.88;5013474;28;20038;-82
2021/11/22 11:40:31;;;;;;;3.72;2.10;;;;;;;8.26;nan;101117.50;4985788;28;20045;-81
2021/11/22 11:43:19;;;;;;;2.85;1.95;;;;;;;8.33;nan;101112.56;5004919;28;20033;-82